sensor_id;sensor_type;location;lat;lon;timestamp;pressure;altitude;pressure_sealevel;temperature;humidity
80986;BME280;70451;51.226;6.412;2023-08-08T00:01:23;100887.72;;;12.10;96.17
80986;BME280;70451;51.226;6.412;2023-08-08T00:03:39;100888.56;;;12.10;96.28
80986;BME280;70451;51.226;6.412;2023-08-08T00:05:54;100882.34;;;12.13;96.33
80986;BME280;70451;51.226;6.412;2023-08-08T00:08:09;100878.44;;;12.04;95.87
80986;BME280;70451;51.226;6.412;2023-08-08T00:10:24;100870.44;;;12.07;96.25
80986;BME280;70451;51.226;6.412;2023-08-08T00:12:40;100867.00;;;12.07;96.56
80986;BME280;70451;51.226;6.412;2023-08-08T00:14:55;100858.44;;;12.03;96.44
80986;BME280;70451;51.226;6.412;2023-08-08T00:17:10;100857.00;;;11.98;96.30
80986;BME280;70451;51.226;6.412;2023-08-08T00:19:26;100860.41;;;12.00;96.02
80986;BME280;70451;51.226;6.412;2023-08-08T00:21:41;100863.94;;;11.99;96.11
80986;BME280;70451;51.226;6.412;2023-08-08T00:23:56;100857.00;;;11.98;96.19
80986;BME280;70451;51.226;6.412;2023-08-08T00:26:12;100863.31;;;11.94;96.18
80986;BME280;70451;51.226;6.412;2023-08-08T00:28:27;100849.25;;;11.96;96.49
80986;BME280;70451;51.226;6.412;2023-08-08T00:30:43;100846.81;;;11.93;96.45
80986;BME280;70451;51.226;6.412;2023-08-08T00:32:58;100847.13;;;11.87;96.09
80986;BME280;70451;51.226;6.412;2023-08-08T00:35:14;100851.44;;;11.88;96.05
80986;BME280;70451;51.226;6.412;2023-08-08T00:37:29;100842.66;;;11.89;96.41
80986;BME280;70451;51.226;6.412;2023-08-08T00:39:44;100857.91;;;11.81;96.43
80986;BME280;70451;51.226;6.412;2023-08-08T00:42:01;100851.69;;;11.84;96.25
80986;BME280;70451;51.226;6.412;2023-08-08T00:44:16;100855.38;;;11.80;96.62
80986;BME280;70451;51.226;6.412;2023-08-08T00:46:31;100854.63;;;11.77;96.41
80986;BME280;70451;51.226;6.412;2023-08-08T00:48:47;100862.97;;;11.84;96.84
80986;BME280;70451;51.226;6.412;2023-08-08T00:51:02;100852.00;;;11.77;96.42
80986;BME280;70451;51.226;6.412;2023-08-08T00:53:18;100865.22;;;11.74;96.86
80986;BME280;70451;51.226;6.412;2023-08-08T00:55:34;100852.94;;;11.76;96.71
80986;BME280;70451;51.226;6.412;2023-08-08T00:57:50;100857.31;;;11.76;97.07
80986;BME280;70451;51.226;6.412;2023-08-08T01:00:07;100859.09;;;11.75;96.95
80986;BME280;70451;51.226;6.412;2023-08-08T01:02:24;100856.53;;;11.74;96.95
80986;BME280;70451;51.226;6.412;2023-08-08T01:04:40;100847.06;;;11.71;96.66
80986;BME280;70451;51.226;6.412;2023-08-08T01:07:12;100853.03;;;11.73;96.88
80986;BME280;70451;51.226;6.412;2023-08-08T01:11:56;100845.19;;;11.73;97.31
80986;BME280;70451;51.226;6.412;2023-08-08T01:14:13;100851.59;;;11.68;96.79
80986;BME280;70451;51.226;6.412;2023-08-08T01:16:28;100850.41;;;11.58;96.88
80986;BME280;70451;51.226;6.412;2023-08-08T01:18:46;100856.16;;;11.64;96.83
80986;BME280;70451;51.226;6.412;2023-08-08T01:21:03;100858.53;;;11.69;96.96
80986;BME280;70451;51.226;6.412;2023-08-08T01:23:24;100860.28;;;11.68;96.83
80986;BME280;70451;51.226;6.412;2023-08-08T01:25:41;100857.09;;;11.63;96.78
80986;BME280;70451;51.226;6.412;2023-08-08T01:27:57;100859.78;;;11.62;96.95
80986;BME280;70451;51.226;6.412;2023-08-08T01:30:12;100855.91;;;11.69;97.41
80986;BME280;70451;51.226;6.412;2023-08-08T01:32:27;100844.69;;;11.67;97.15
80986;BME280;70451;51.226;6.412;2023-08-08T01:34:43;100848.69;;;11.74;97.16
80986;BME280;70451;51.226;6.412;2023-08-08T01:37:14;100847.53;;;11.80;97.15
80986;BME280;70451;51.226;6.412;2023-08-08T01:39:33;100844.69;;;11.84;97.20
80986;BME280;70451;51.226;6.412;2023-08-08T01:41:50;100845.19;;;11.91;97.46
80986;BME280;70451;51.226;6.412;2023-08-08T01:44:05;100840.75;;;11.93;97.12
80986;BME280;70451;51.226;6.412;2023-08-08T01:46:21;100837.34;;;11.91;96.56
80986;BME280;70451;51.226;6.412;2023-08-08T01:48:39;100826.13;;;11.89;96.51
80986;BME280;70451;51.226;6.412;2023-08-08T01:50:54;100833.03;;;11.90;96.37
80986;BME280;70451;51.226;6.412;2023-08-08T01:53:10;100826.97;;;11.89;96.34
80986;BME280;70451;51.226;6.412;2023-08-08T01:55:25;100833.97;;;11.89;96.43
80986;BME280;70451;51.226;6.412;2023-08-08T01:57:40;100827.22;;;11.85;96.32
80986;BME280;70451;51.226;6.412;2023-08-08T01:59:55;100826.13;;;11.89;96.60
80986;BME280;70451;51.226;6.412;2023-08-08T02:02:11;100824.34;;;11.89;95.92
80986;BME280;70451;51.226;6.412;2023-08-08T02:04:27;100818.88;;;11.94;96.05
80986;BME280;70451;51.226;6.412;2023-08-08T02:06:42;100821.25;;;11.98;96.46
80986;BME280;70451;51.226;6.412;2023-08-08T02:08:58;100818.66;;;11.98;95.99
80986;BME280;70451;51.226;6.412;2023-08-08T02:11:13;100827.41;;;11.97;96.04
80986;BME280;70451;51.226;6.412;2023-08-08T02:13:28;100820.56;;;11.95;96.02
80986;BME280;70451;51.226;6.412;2023-08-08T02:15:44;100821.59;;;11.92;96.06
80986;BME280;70451;51.226;6.412;2023-08-08T02:18:00;100822.84;;;11.85;95.84
80986;BME280;70451;51.226;6.412;2023-08-08T02:20:16;100817.94;;;11.79;96.44
80986;BME280;70451;51.226;6.412;2023-08-08T02:22:31;100817.38;;;11.72;96.10
80986;BME280;70451;51.226;6.412;2023-08-08T02:24:46;100810.63;;;11.86;96.25
80986;BME280;70451;51.226;6.412;2023-08-08T02:27:02;100808.25;;;11.81;96.58
80986;BME280;70451;51.226;6.412;2023-08-08T02:29:17;100808.09;;;11.84;96.52
80986;BME280;70451;51.226;6.412;2023-08-08T02:31:33;100809.94;;;11.82;96.21
80986;BME280;70451;51.226;6.412;2023-08-08T02:33:49;100808.00;;;11.86;96.43
80986;BME280;70451;51.226;6.412;2023-08-08T02:36:05;100805.97;;;11.91;96.53
80986;BME280;70451;51.226;6.412;2023-08-08T02:38:20;100797.81;;;11.97;96.50
80986;BME280;70451;51.226;6.412;2023-08-08T02:40:36;100793.34;;;11.99;96.85
80986;BME280;70451;51.226;6.412;2023-08-08T02:42:51;100799.22;;;12.02;96.36
80986;BME280;70451;51.226;6.412;2023-08-08T02:45:07;100793.84;;;12.05;96.66
80986;BME280;70451;51.226;6.412;2023-08-08T02:47:22;100788.63;;;12.05;96.24
80986;BME280;70451;51.226;6.412;2023-08-08T02:49:38;100793.84;;;12.05;96.73
80986;BME280;70451;51.226;6.412;2023-08-08T02:51:54;100789.69;;;12.01;96.69
80986;BME280;70451;51.226;6.412;2023-08-08T02:54:09;100793.34;;;11.99;96.41
80986;BME280;70451;51.226;6.412;2023-08-08T02:56:24;100783.81;;;11.98;96.75
80986;BME280;70451;51.226;6.412;2023-08-08T02:58:39;100783.03;;;11.96;96.42
80986;BME280;70451;51.226;6.412;2023-08-08T03:00:55;100779.56;;;11.95;97.03
80986;BME280;70451;51.226;6.412;2023-08-08T03:03:10;100779.75;;;11.92;97.13
80986;BME280;70451;51.226;6.412;2023-08-08T03:05:25;100777.22;;;11.91;97.04
80986;BME280;70451;51.226;6.412;2023-08-08T03:07:41;100785.22;;;11.88;96.92
80986;BME280;70451;51.226;6.412;2023-08-08T03:09:56;100786.84;;;11.90;96.87
80986;BME280;70451;51.226;6.412;2023-08-08T03:12:11;100781.69;;;11.89;97.04
80986;BME280;70451;51.226;6.412;2023-08-08T03:14:27;100782.09;;;11.81;97.21
80986;BME280;70451;51.226;6.412;2023-08-08T03:16:42;100776.72;;;11.84;97.14
80986;BME280;70451;51.226;6.412;2023-08-08T03:18:57;100778.63;;;11.81;97.36
80986;BME280;70451;51.226;6.412;2023-08-08T03:21:13;100780.53;;;11.79;97.54
80986;BME280;70451;51.226;6.412;2023-08-08T03:23:29;100776.38;;;11.74;97.42
80986;BME280;70451;51.226;6.412;2023-08-08T03:25:44;100781.81;;;11.70;97.45
80986;BME280;70451;51.226;6.412;2023-08-08T03:27:59;100793.13;;;11.70;97.62
80986;BME280;70451;51.226;6.412;2023-08-08T03:30:15;100788.22;;;11.64;97.53
80986;BME280;70451;51.226;6.412;2023-08-08T03:32:30;100781.03;;;11.68;97.88
80986;BME280;70451;51.226;6.412;2023-08-08T03:34:46;100776.06;;;11.63;97.59
80986;BME280;70451;51.226;6.412;2023-08-08T03:37:01;100781.13;;;11.66;97.95
80986;BME280;70451;51.226;6.412;2023-08-08T03:39:16;100785.84;;;11.60;98.15
80986;BME280;70451;51.226;6.412;2023-08-08T03:41:32;100783.22;;;11.60;98.12
80986;BME280;70451;51.226;6.412;2023-08-08T03:43:47;100789.28;;;11.60;97.82
80986;BME280;70451;51.226;6.412;2023-08-08T03:46:02;100779.53;;;11.64;98.11
80986;BME280;70451;51.226;6.412;2023-08-08T03:48:18;100779.19;;;11.70;97.99
80986;BME280;70451;51.226;6.412;2023-08-08T03:50:33;100784.06;;;11.60;98.37
80986;BME280;70451;51.226;6.412;2023-08-08T03:52:48;100776.59;;;11.70;98.42
80986;BME280;70451;51.226;6.412;2023-08-08T03:55:04;100780.13;;;11.69;98.46
80986;BME280;70451;51.226;6.412;2023-08-08T03:57:20;100770.34;;;11.72;98.32
80986;BME280;70451;51.226;6.412;2023-08-08T03:59:35;100777.13;;;11.76;98.52
80986;BME280;70451;51.226;6.412;2023-08-08T04:01:50;100774.88;;;11.86;98.82
80986;BME280;70451;51.226;6.412;2023-08-08T04:04:05;100772.00;;;11.91;98.98
80986;BME280;70451;51.226;6.412;2023-08-08T04:06:21;100767.44;;;11.94;98.63
80986;BME280;70451;51.226;6.412;2023-08-08T04:08:36;100768.38;;;11.93;98.52
80986;BME280;70451;51.226;6.412;2023-08-08T04:10:51;100775.63;;;11.88;98.47
80986;BME280;70451;51.226;6.412;2023-08-08T04:13:07;100771.56;;;11.98;98.35
80986;BME280;70451;51.226;6.412;2023-08-08T04:15:22;100759.84;;;12.05;98.45
80986;BME280;70451;51.226;6.412;2023-08-08T04:17:37;100764.47;;;12.16;98.31
80986;BME280;70451;51.226;6.412;2023-08-08T04:19:52;100766.94;;;12.19;98.39
80986;BME280;70451;51.226;6.412;2023-08-08T04:22:08;100758.41;;;12.15;98.02
80986;BME280;70451;51.226;6.412;2023-08-08T04:24:24;100759.16;;;12.18;98.10
80986;BME280;70451;51.226;6.412;2023-08-08T04:26:40;100755.69;;;12.17;98.15
80986;BME280;70451;51.226;6.412;2023-08-08T04:28:55;100754.50;;;12.23;98.20
80986;BME280;70451;51.226;6.412;2023-08-08T04:31:11;100751.88;;;12.23;97.95
80986;BME280;70451;51.226;6.412;2023-08-08T04:33:26;100756.97;;;12.26;98.28
80986;BME280;70451;51.226;6.412;2023-08-08T04:35:41;100757.13;;;12.23;98.36
80986;BME280;70451;51.226;6.412;2023-08-08T04:37:56;100756.28;;;12.22;98.46
80986;BME280;70451;51.226;6.412;2023-08-08T04:40:12;100760.69;;;12.22;98.22
80986;BME280;70451;51.226;6.412;2023-08-08T04:42:27;100755.97;;;12.28;98.64
80986;BME280;70451;51.226;6.412;2023-08-08T04:44:42;100748.94;;;12.29;98.33
80986;BME280;70451;51.226;6.412;2023-08-08T04:46:58;100761.00;;;12.31;98.46
80986;BME280;70451;51.226;6.412;2023-08-08T04:49:13;100754.25;;;12.27;98.21
80986;BME280;70451;51.226;6.412;2023-08-08T04:51:28;100757.38;;;12.34;98.42
80986;BME280;70451;51.226;6.412;2023-08-08T04:53:44;100752.06;;;12.35;98.17
80986;BME280;70451;51.226;6.412;2023-08-08T04:55:59;100754.41;;;12.40;98.30
80986;BME280;70451;51.226;6.412;2023-08-08T04:58:14;100755.66;;;12.48;98.03
80986;BME280;70451;51.226;6.412;2023-08-08T05:00:29;100752.69;;;12.54;98.26
80986;BME280;70451;51.226;6.412;2023-08-08T05:02:45;100758.50;;;12.60;97.74
80986;BME280;70451;51.226;6.412;2023-08-08T05:05:00;100762.50;;;12.65;97.98
80986;BME280;70451;51.226;6.412;2023-08-08T05:07:15;100757.13;;;12.68;97.65
80986;BME280;70451;51.226;6.412;2023-08-08T05:09:31;100756.84;;;12.73;97.49
80986;BME280;70451;51.226;6.412;2023-08-08T05:11:46;100758.38;;;12.77;97.35
80986;BME280;70451;51.226;6.412;2023-08-08T05:14:02;100755.38;;;12.83;97.61
80986;BME280;70451;51.226;6.412;2023-08-08T05:16:18;100746.69;;;12.82;97.50
80986;BME280;70451;51.226;6.412;2023-08-08T05:18:33;100749.78;;;12.89;97.15
80986;BME280;70451;51.226;6.412;2023-08-08T05:20:48;100756.63;;;12.91;97.26
80986;BME280;70451;51.226;6.412;2023-08-08T05:23:04;100758.88;;;12.98;96.71
80986;BME280;70451;51.226;6.412;2023-08-08T05:25:19;100763.09;;;13.00;96.83
80986;BME280;70451;51.226;6.412;2023-08-08T05:27:34;100756.81;;;13.03;96.74
80986;BME280;70451;51.226;6.412;2023-08-08T05:29:50;100761.03;;;13.05;96.96
80986;BME280;70451;51.226;6.412;2023-08-08T05:32:05;100753.09;;;13.07;96.44
80986;BME280;70451;51.226;6.412;2023-08-08T05:34:23;100757.38;;;13.08;96.04
80986;BME280;70451;51.226;6.412;2023-08-08T05:36:39;100759.69;;;13.14;96.01
80986;BME280;70451;51.226;6.412;2023-08-08T05:38:54;100762.09;;;13.17;96.21
80986;BME280;70451;51.226;6.412;2023-08-08T05:41:10;100763.03;;;13.16;95.74
80986;BME280;70451;51.226;6.412;2023-08-08T05:43:25;100762.00;;;13.18;95.89
80986;BME280;70451;51.226;6.412;2023-08-08T05:45:42;100759.56;;;13.29;96.20
80986;BME280;70451;51.226;6.412;2023-08-08T05:47:58;100770.06;;;13.29;95.87
80986;BME280;70451;51.226;6.412;2023-08-08T05:50:15;100765.03;;;13.26;95.97
80986;BME280;70451;51.226;6.412;2023-08-08T05:52:30;100767.44;;;13.29;95.43
80986;BME280;70451;51.226;6.412;2023-08-08T05:54:46;100770.53;;;13.36;96.30
80986;BME280;70451;51.226;6.412;2023-08-08T05:57:02;100769.50;;;13.39;95.26
80986;BME280;70451;51.226;6.412;2023-08-08T05:59:17;100770.19;;;13.42;95.42
80986;BME280;70451;51.226;6.412;2023-08-08T06:01:33;100772.59;;;13.45;95.17
80986;BME280;70451;51.226;6.412;2023-08-08T06:03:49;100771.84;;;13.43;94.98
80986;BME280;70451;51.226;6.412;2023-08-08T06:06:05;100779.81;;;13.56;95.13
80986;BME280;70451;51.226;6.412;2023-08-08T06:08:21;100774.66;;;13.54;95.04
80986;BME280;70451;51.226;6.412;2023-08-08T06:10:36;100780.28;;;13.62;94.41
80986;BME280;70451;51.226;6.412;2023-08-08T06:12:52;100780.91;;;13.66;94.46
80986;BME280;70451;51.226;6.412;2023-08-08T06:15:07;100779.97;;;13.67;93.98
80986;BME280;70451;51.226;6.412;2023-08-08T06:17:23;100777.19;;;13.70;93.54
80986;BME280;70451;51.226;6.412;2023-08-08T06:19:39;100785.75;;;13.86;93.31
80986;BME280;70451;51.226;6.412;2023-08-08T06:21:54;100783.50;;;13.94;93.66
80986;BME280;70451;51.226;6.412;2023-08-08T06:24:09;100778.81;;;13.99;93.10
80986;BME280;70451;51.226;6.412;2023-08-08T06:26:25;100784.41;;;14.07;92.42
80986;BME280;70451;51.226;6.412;2023-08-08T06:28:40;100784.66;;;14.17;91.90
80986;BME280;70451;51.226;6.412;2023-08-08T06:30:57;100782.50;;;14.50;91.45
80986;BME280;70451;51.226;6.412;2023-08-08T06:33:13;100782.31;;;14.54;90.50
80986;BME280;70451;51.226;6.412;2023-08-08T06:35:28;100787.50;;;14.68;90.02
80986;BME280;70451;51.226;6.412;2023-08-08T06:37:44;100775.91;;;14.97;88.89
80986;BME280;70451;51.226;6.412;2023-08-08T06:39:59;100784.91;;;14.93;89.31
80986;BME280;70451;51.226;6.412;2023-08-08T06:42:14;100793.72;;;14.79;89.31
80986;BME280;70451;51.226;6.412;2023-08-08T06:44:32;100799.06;;;14.78;89.37
80986;BME280;70451;51.226;6.412;2023-08-08T06:46:47;100788.56;;;14.78;90.16
80986;BME280;70451;51.226;6.412;2023-08-08T06:49:03;100778.88;;;14.66;89.40
80986;BME280;70451;51.226;6.412;2023-08-08T06:51:19;100787.81;;;14.63;89.93
80986;BME280;70451;51.226;6.412;2023-08-08T06:53:35;100786.28;;;14.86;90.16
80986;BME280;70451;51.226;6.412;2023-08-08T06:55:50;100783.66;;;14.86;89.15
80986;BME280;70451;51.226;6.412;2023-08-08T06:58:06;100781.59;;;15.04;88.62
80986;BME280;70451;51.226;6.412;2023-08-08T07:00:21;100778.63;;;14.96;88.01
80986;BME280;70451;51.226;6.412;2023-08-08T07:02:37;100782.09;;;14.96;88.29
80986;BME280;70451;51.226;6.412;2023-08-08T07:04:52;100784.00;;;15.07;88.85
80986;BME280;70451;51.226;6.412;2023-08-08T07:07:07;100784.13;;;15.05;88.42
80986;BME280;70451;51.226;6.412;2023-08-08T07:09:23;100782.22;;;15.07;88.41
80986;BME280;70451;51.226;6.412;2023-08-08T07:11:38;100775.38;;;15.30;87.49
80986;BME280;70451;51.226;6.412;2023-08-08T07:13:54;100779.91;;;15.28;87.42
80986;BME280;70451;51.226;6.412;2023-08-08T07:16:09;100785.16;;;15.28;87.82
80986;BME280;70451;51.226;6.412;2023-08-08T07:18:24;100779.69;;;15.31;88.05
80986;BME280;70451;51.226;6.412;2023-08-08T07:20:39;100775.59;;;15.40;87.52
80986;BME280;70451;51.226;6.412;2023-08-08T07:22:55;100783.25;;;15.43;87.99
80986;BME280;70451;51.226;6.412;2023-08-08T07:25:10;100778.22;;;15.40;88.18
80986;BME280;70451;51.226;6.412;2023-08-08T07:27:26;100782.34;;;15.31;88.24
80986;BME280;70451;51.226;6.412;2023-08-08T07:29:42;100772.66;;;15.32;87.66
80986;BME280;70451;51.226;6.412;2023-08-08T07:31:58;100781.28;;;15.46;88.11
80986;BME280;70451;51.226;6.412;2023-08-08T07:34:13;100779.78;;;15.42;87.77
80986;BME280;70451;51.226;6.412;2023-08-08T07:36:28;100782.34;;;15.31;88.25
80986;BME280;70451;51.226;6.412;2023-08-08T07:38:44;100782.75;;;15.38;87.92
80986;BME280;70451;51.226;6.412;2023-08-08T07:40:59;100788.84;;;15.38;87.91
80986;BME280;70451;51.226;6.412;2023-08-08T07:43:14;100782.41;;;15.42;88.10
80986;BME280;70451;51.226;6.412;2023-08-08T07:45:30;100777.28;;;15.41;88.13
80986;BME280;70451;51.226;6.412;2023-08-08T07:47:45;100778.91;;;15.56;87.84
80986;BME280;70451;51.226;6.412;2023-08-08T07:50:00;100767.09;;;15.61;87.90
80986;BME280;70451;51.226;6.412;2023-08-08T07:52:16;100769.81;;;15.60;86.54
80986;BME280;70451;51.226;6.412;2023-08-08T07:54:31;100772.34;;;15.61;86.51
80986;BME280;70451;51.226;6.412;2023-08-08T07:56:46;100764.97;;;15.66;87.05
80986;BME280;70451;51.226;6.412;2023-08-08T07:59:02;100763.59;;;15.74;86.74
80986;BME280;70451;51.226;6.412;2023-08-08T08:01:18;100771.09;;;16.03;86.30
80986;BME280;70451;51.226;6.412;2023-08-08T08:03:34;100762.47;;;16.01;85.89
80986;BME280;70451;51.226;6.412;2023-08-08T08:05:49;100768.63;;;16.13;86.31
80986;BME280;70451;51.226;6.412;2023-08-08T08:08:04;100776.31;;;16.16;86.10
80986;BME280;70451;51.226;6.412;2023-08-08T08:10:20;100766.41;;;16.20;85.13
80986;BME280;70451;51.226;6.412;2023-08-08T08:12:36;100761.09;;;16.32;85.01
80986;BME280;70451;51.226;6.412;2023-08-08T08:14:51;100766.63;;;16.40;85.60
80986;BME280;70451;51.226;6.412;2023-08-08T08:17:07;100766.28;;;16.45;85.39
80986;BME280;70451;51.226;6.412;2023-08-08T08:19:22;100765.41;;;16.33;83.80
80986;BME280;70451;51.226;6.412;2023-08-08T08:21:37;100769.03;;;16.43;83.76
80986;BME280;70451;51.226;6.412;2023-08-08T08:23:52;100767.13;;;16.45;83.45
80986;BME280;70451;51.226;6.412;2023-08-08T08:26:08;100771.38;;;16.35;84.26
80986;BME280;70451;51.226;6.412;2023-08-08T08:28:23;100769.94;;;16.31;83.71
80986;BME280;70451;51.226;6.412;2023-08-08T08:30:38;100766.72;;;16.15;83.50
80986;BME280;70451;51.226;6.412;2023-08-08T08:32:54;100765.41;;;16.33;84.59
80986;BME280;70451;51.226;6.412;2023-08-08T08:35:09;100773.34;;;16.44;83.81
80986;BME280;70451;51.226;6.412;2023-08-08T08:37:24;100771.28;;;16.61;84.16
80986;BME280;70451;51.226;6.412;2023-08-08T08:39:40;100770.25;;;16.51;84.67
80986;BME280;70451;51.226;6.412;2023-08-08T08:41:59;100772.59;;;16.42;83.54
80986;BME280;70451;51.226;6.412;2023-08-08T08:44:16;100772.78;;;16.52;84.83
80986;BME280;70451;51.226;6.412;2023-08-08T08:46:32;100771.81;;;16.53;84.19
80986;BME280;70451;51.226;6.412;2023-08-08T08:48:51;100766.16;;;16.47;83.68
80986;BME280;70451;51.226;6.412;2023-08-08T08:51:06;100767.25;;;16.68;83.63
80986;BME280;70451;51.226;6.412;2023-08-08T08:53:22;100768.13;;;16.79;83.27
80986;BME280;70451;51.226;6.412;2023-08-08T08:55:38;100772.66;;;16.77;82.58
80986;BME280;70451;51.226;6.412;2023-08-08T08:57:54;100760.47;;;16.88;82.40
80986;BME280;70451;51.226;6.412;2023-08-08T09:00:10;100774.81;;;17.18;82.44
80986;BME280;70451;51.226;6.412;2023-08-08T09:02:26;100762.09;;;17.23;81.29
80986;BME280;70451;51.226;6.412;2023-08-08T09:04:41;100764.88;;;17.44;81.53
80986;BME280;70451;51.226;6.412;2023-08-08T09:06:57;100769.28;;;17.44;80.18
80986;BME280;70451;51.226;6.412;2023-08-08T09:09:13;100760.66;;;17.42;82.31
80986;BME280;70451;51.226;6.412;2023-08-08T09:11:31;100758.97;;;17.30;81.45
80986;BME280;70451;51.226;6.412;2023-08-08T09:13:46;100768.34;;;17.56;81.30
80986;BME280;70451;51.226;6.412;2023-08-08T09:16:02;100760.22;;;17.81;80.83
80986;BME280;70451;51.226;6.412;2023-08-08T09:18:17;100759.81;;;17.86;78.66
80986;BME280;70451;51.226;6.412;2023-08-08T09:20:33;100756.00;;;17.90;78.36
80986;BME280;70451;51.226;6.412;2023-08-08T09:22:48;100767.16;;;17.82;79.84
80986;BME280;70451;51.226;6.412;2023-08-08T09:25:05;100769.66;;;17.84;77.67
80986;BME280;70451;51.226;6.412;2023-08-08T09:27:21;100763.88;;;18.01;79.50
80986;BME280;70451;51.226;6.412;2023-08-08T09:29:36;100760.00;;;18.16;79.79
80986;BME280;70451;51.226;6.412;2023-08-08T09:31:52;100753.38;;;18.22;78.35
80986;BME280;70451;51.226;6.412;2023-08-08T09:34:07;100757.09;;;18.30;78.62
80986;BME280;70451;51.226;6.412;2023-08-08T09:36:23;100764.88;;;17.89;78.67
80986;BME280;70451;51.226;6.412;2023-08-08T09:38:38;100764.63;;;17.81;76.63
80986;BME280;70451;51.226;6.412;2023-08-08T09:40:54;100765.22;;;17.95;79.21
80986;BME280;70451;51.226;6.412;2023-08-08T09:43:11;100765.97;;;17.75;78.00
80986;BME280;70451;51.226;6.412;2023-08-08T09:45:26;100760.94;;;17.61;78.65
80986;BME280;70451;51.226;6.412;2023-08-08T09:47:41;100762.22;;;17.44;78.74
80986;BME280;70451;51.226;6.412;2023-08-08T09:50:00;100766.53;;;17.45;79.36
80986;BME280;70451;51.226;6.412;2023-08-08T09:52:15;100761.97;;;17.36;79.37
80986;BME280;70451;51.226;6.412;2023-08-08T09:54:31;100767.72;;;17.19;78.26
80986;BME280;70451;51.226;6.412;2023-08-08T09:56:49;100765.66;;;17.00;78.76
80986;BME280;70451;51.226;6.412;2023-08-08T09:59:05;100772.72;;;17.00;79.21
80986;BME280;70451;51.226;6.412;2023-08-08T10:01:21;100775.22;;;16.90;80.07
80986;BME280;70451;51.226;6.412;2023-08-08T10:03:37;100779.22;;;16.72;80.80
80986;BME280;70451;51.226;6.412;2023-08-08T10:05:52;100779.56;;;16.67;81.00
80986;BME280;70451;51.226;6.412;2023-08-08T10:08:08;100774.34;;;16.55;81.83
80986;BME280;70451;51.226;6.412;2023-08-08T10:10:24;100774.53;;;16.40;83.03
80986;BME280;70451;51.226;6.412;2023-08-08T10:12:39;100774.25;;;16.32;83.65
80986;BME280;70451;51.226;6.412;2023-08-08T10:14:55;100777.94;;;16.30;83.77
80986;BME280;70451;51.226;6.412;2023-08-08T10:17:14;100773.84;;;16.26;83.05
80986;BME280;70451;51.226;6.412;2023-08-08T10:19:30;100774.56;;;16.28;83.83
80986;BME280;70451;51.226;6.412;2023-08-08T10:21:46;100786.38;;;16.22;84.46
80986;BME280;70451;51.226;6.412;2023-08-08T10:26:19;100781.06;;;16.11;85.27
80986;BME280;70451;51.226;6.412;2023-08-08T10:28:34;100782.06;;;15.97;87.31
80986;BME280;70451;51.226;6.412;2023-08-08T10:30:57;100786.69;;;15.94;87.97
80986;BME280;70451;51.226;6.412;2023-08-08T10:33:19;100779.44;;;15.97;88.46
80986;BME280;70451;51.226;6.412;2023-08-08T10:35:37;100783.91;;;16.08;89.18
80986;BME280;70451;51.226;6.412;2023-08-08T10:37:54;100781.13;;;15.98;89.67
80986;BME280;70451;51.226;6.412;2023-08-08T10:40:09;100783.91;;;16.08;90.24
80986;BME280;70451;51.226;6.412;2023-08-08T10:42:27;100782.34;;;16.29;89.71
80986;BME280;70451;51.226;6.412;2023-08-08T10:44:43;100779.19;;;16.61;89.01
80986;BME280;70451;51.226;6.412;2023-08-08T10:46:59;100778.16;;;16.74;88.66
80986;BME280;70451;51.226;6.412;2023-08-08T10:49:17;100771.84;;;16.88;88.47
80986;BME280;70451;51.226;6.412;2023-08-08T10:51:40;100760.72;;;16.96;87.53
80986;BME280;70451;51.226;6.412;2023-08-08T10:53:57;100768.75;;;16.94;86.12
80986;BME280;70451;51.226;6.412;2023-08-08T10:56:13;100775.38;;;17.11;84.88
80986;BME280;70451;51.226;6.412;2023-08-08T10:58:40;100774.22;;;17.26;85.22
80986;BME280;70451;51.226;6.412;2023-08-08T11:00:57;100775.16;;;17.36;84.19
80986;BME280;70451;51.226;6.412;2023-08-08T11:03:12;100770.63;;;17.38;83.82
80986;BME280;70451;51.226;6.412;2023-08-08T11:05:29;100776.72;;;17.39;82.60
80986;BME280;70451;51.226;6.412;2023-08-08T11:07:45;100777.44;;;17.41;82.50
80986;BME280;70451;51.226;6.412;2023-08-08T11:10:01;100769.41;;;17.42;82.62
80986;BME280;70451;51.226;6.412;2023-08-08T11:12:16;100774.31;;;17.25;80.75
80986;BME280;70451;51.226;6.412;2023-08-08T11:14:31;100775.38;;;17.11;81.26
80986;BME280;70451;51.226;6.412;2023-08-08T11:16:49;100783.41;;;17.09;81.71
80986;BME280;70451;51.226;6.412;2023-08-08T11:19:05;100769.00;;;17.02;82.11
80986;BME280;70451;51.226;6.412;2023-08-08T11:21:23;100769.84;;;17.03;82.70
80986;BME280;70451;51.226;6.412;2023-08-08T11:23:38;100769.97;;;16.90;84.47
80986;BME280;70451;51.226;6.412;2023-08-08T11:25:54;100771.78;;;16.66;84.64
80986;BME280;70451;51.226;6.412;2023-08-08T11:28:11;100769.41;;;16.50;84.64
80986;BME280;70451;51.226;6.412;2023-08-08T11:30:32;100769.59;;;16.36;85.00
80986;BME280;70451;51.226;6.412;2023-08-08T11:32:49;100771.44;;;16.47;86.18
80986;BME280;70451;51.226;6.412;2023-08-08T11:35:05;100762.59;;;16.24;85.18
80986;BME280;70451;51.226;6.412;2023-08-08T11:37:21;100767.84;;;16.24;84.63
80986;BME280;70451;51.226;6.412;2023-08-08T11:39:37;100773.31;;;16.21;85.30
80986;BME280;70451;51.226;6.412;2023-08-08T11:41:53;100763.72;;;16.32;86.82
80986;BME280;70451;51.226;6.412;2023-08-08T11:44:08;100772.09;;;16.14;85.67
80986;BME280;70451;51.226;6.412;2023-08-08T11:46:24;100771.59;;;16.09;85.74
80986;BME280;70451;51.226;6.412;2023-08-08T11:48:41;100760.72;;;16.13;85.88
80986;BME280;70451;51.226;6.412;2023-08-08T11:50:56;100762.81;;;16.21;86.49
80986;BME280;70451;51.226;6.412;2023-08-08T11:53:11;100763.53;;;16.23;86.18
80986;BME280;70451;51.226;6.412;2023-08-08T11:55:27;100761.25;;;16.18;85.91